| time (UTC) | temp F | wind direction | speed knots | gust knots | rain 1hr in | rain 24hr in | rain mn in | humidity % | barometer mb |
| 20260509224235 | 68 | 294 | 3.5 | 5.2 | 0.00 | 0.15 | 0.15 | 54 | 1007.2 |
| 20260509223732 | 68 | 220 | 7.0 | 7.8 | 0.00 | 0.15 | 0.15 | 54 | 1007.2 |
| 20260509223228 | 68 | 215 | 1.7 | 2.6 | 0.00 | 0.15 | 0.15 | 55 | 1007.4 |
| 20260509222725 | 67 | 269 | 6.1 | 7.8 | 0.00 | 0.15 | 0.15 | 56 | 1007.5 |
| 20260509222220 | 68 | 322 | 4.3 | 6.1 | 0.00 | 0.15 | 0.15 | 56 | 1007.7 |
| 20260509221716 | 68 | 243 | 2.6 | 2.6 | 0.00 | 0.15 | 0.15 | 57 | 1007.7 |
| 20260509221213 | 68 | 261 | 1.7 | 1.7 | 0.00 | 0.15 | 0.15 | 57 | 1007.7 |
| 20260509220709 | 68 | 239 | 2.6 | 2.6 | 0.00 | 0.15 | 0.15 | 57 | 1007.8 |
| 20260509220206 | 68 | 198 | 4.3 | 6.1 | 0.00 | 0.15 | 0.15 | 57 | 1007.7 |
| 20260509215701 | 68 | 229 | 4.3 | 6.1 | 0.00 | 0.15 | 0.15 | 56 | 1008.1 |
| 20260509215158 | 68 | 248 | 3.5 | 5.2 | 0.00 | 0.15 | 0.15 | 56 | 1007.9 |
| 20260509214655 | 68 | 199 | 4.3 | 6.1 | 0.00 | 0.15 | 0.15 | 54 | 1007.7 |
| 20260509214152 | 67 | 327 | 1.7 | 1.7 | 0.00 | 0.15 | 0.15 | 57 | 1007.8 |
| 20260509213649 | 67 | 260 | 3.5 | 4.3 | 0.00 | 0.15 | 0.15 | 56 | 1007.9 |
| 20260509213139 | 68 | 292 | 2.6 | 4.3 | 0.00 | 0.15 | 0.15 | 54 | 1008.2 |
| 20260509212637 | 66 | 299 | 3.5 | 6.1 | 0.00 | 0.15 | 0.15 | 57 | 1007.8 |
| 20260509212133 | 66 | 288 | 6.1 | 7.0 | 0.00 | 0.15 | 0.15 | 57 | 1007.9 |
| 20260509211630 | 68 | 283 | 1.7 | 1.7 | 0.00 | 0.15 | 0.15 | 58 | 1007.9 |
| 20260509211126 | 68 | 288 | 3.5 | 6.1 | 0.00 | 0.15 | 0.15 | 57 | 1008.1 |
| 20260509210623 | 68 | 316 | 4.3 | 5.2 | 0.00 | 0.15 | 0.15 | 56 | 1008.2 |
| 20260509210120 | 67 | 270 | 3.5 | 4.3 | 0.00 | 0.15 | 0.15 | 58 | 1008.2 |
| 20260509205614 | 67 | 174 | 6.1 | 7.0 | 0.00 | 0.15 | 0.15 | 59 | 1008.3 |
| 20260509205109 | 66 | 284 | 5.2 | 7.0 | 0.00 | 0.15 | 0.15 | 59 | 1008.3 |
| 20260509204606 | 65 | 309 | 1.7 | 1.7 | 0.00 | 0.15 | 0.15 | 61 | 1008.3 |
| 20260509204102 | 66 | 330 | 1.7 | 1.7 | 0.00 | 0.15 | 0.15 | 61 | 1008.4 |
| 20260509203558 | 65 | 280 | 5.2 | 7.0 | 0.00 | 0.15 | 0.15 | 61 | 1008.4 |
| 20260509203056 | 67 | 294 | 2.6 | 5.2 | 0.00 | 0.15 | 0.15 | 59 | 1008.6 |
| 20260509202550 | 66 | 335 | 1.7 | 1.7 | 0.00 | 0.15 | 0.15 | 64 | 1008.6 |
| 20260509202046 | 65 | 350 | 1.7 | 1.7 | 0.00 | 0.15 | 0.15 | 64 | 1008.5 |
| 20260509201541 | 65 | 229 | 6.1 | 7.8 | 0.00 | 0.15 | 0.15 | 64 | 1008.5 |
| 20260509201039 | 65 | 187 | 5.2 | 7.0 | 0.00 | 0.15 | 0.15 | 64 | 1008.6 |
| 20260509200533 | 64 | 323 | 6.1 | 7.0 | 0.00 | 0.15 | 0.15 | 64 | 1008.6 |
| 20260509200030 | 64 | 310 | 1.7 | 1.7 | 0.00 | 0.15 | 0.15 | 65 | 1008.7 |
| 20260509195526 | 64 | 271 | 4.3 | 5.2 | 0.00 | 0.15 | 0.15 | 65 | 1008.7 |
| 20260509195025 | 65 | 320 | 3.5 | 4.3 | 0.00 | 0.15 | 0.15 | 65 | 1008.6 |
| 20260509194520 | 66 | 328 | 2.6 | 4.3 | 0.00 | 0.15 | 0.15 | 64 | 1009.0 |
| 20260509194018 | 65 | 322 | 3.5 | 5.2 | 0.00 | 0.15 | 0.15 | 65 | 1008.8 |
| 20260509193513 | 64 | 278 | 1.7 | 2.6 | 0.00 | 0.15 | 0.15 | 67 | 1009.0 |
| 20260509193010 | 64 | 239 | 4.3 | 5.2 | 0.00 | 0.15 | 0.15 | 67 | 1009.1 |
| 20260509192506 | 64 | 276 | 4.3 | 6.1 | 0.00 | 0.15 | 0.15 | 65 | 1009.4 |
| 20260509192001 | 63 | 321 | 3.5 | 5.2 | 0.00 | 0.15 | 0.15 | 69 | 1009.3 |
| 20260509191456 | 64 | 309 | 2.6 | 4.3 | 0.00 | 0.15 | 0.15 | 68 | 1009.0 |
| 20260509190952 | 64 | 275 | 0.9 | 1.7 | 0.00 | 0.15 | 0.15 | 69 | 1009.4 |
| 20260509190449 | 64 | 332 | 5.2 | 7.8 | 0.00 | 0.15 | 0.15 | 68 | 1009.5 |
| 20260509185947 | 63 | 277 | 7.0 | 7.8 | 0.00 | 0.15 | 0.15 | 69 | 1009.5 |
| 20260509185444 | 62 | 299 | 3.5 | 4.3 | 0.00 | 0.15 | 0.15 | 69 | 1009.7 |
| 20260509184940 | 64 | 253 | 4.3 | 6.1 | 0.00 | 0.15 | 0.15 | 67 | 1009.5 |
| 20260509184438 | 64 | 268 | 4.3 | 6.1 | 0.00 | 0.15 | 0.15 | 68 | 1009.6 |
| 20260509183934 | 64 | 292 | 1.7 | 1.7 | 0.00 | 0.15 | 0.15 | 69 | 1009.8 |
| 20260509183429 | 64 | 278 | 3.5 | 4.3 | 0.00 | 0.15 | 0.15 | 71 | 1009.5 |
| 20260509182926 | 62 | 241 | 2.6 | 2.6 | 0.00 | 0.15 | 0.15 | 75 | 1009.5 |
| 20260509182422 | 62 | 288 | 4.3 | 5.2 | 0.00 | 0.15 | 0.15 | 74 | 1009.8 |
| 20260509181920 | 60 | 321 | 0.9 | 1.7 | 0.00 | 0.15 | 0.15 | 81 | 1009.8 |
| 20260509181418 | 60 | 286 | 2.6 | 2.6 | 0.00 | 0.15 | 0.15 | 80 | 1009.9 |
| 20260509180915 | 60 | 165 | 2.6 | 4.3 | 0.00 | 0.15 | 0.15 | 78 | 1009.8 |
| 20260509180410 | 60 | 195 | 2.6 | 2.6 | 0.00 | 0.15 | 0.15 | 78 | 1009.8 |
| 20260509175907 | 60 | 285 | 2.6 | 4.3 | 0.00 | 0.15 | 0.15 | 77 | 1009.8 |
| 20260509175403 | 60 | 342 | 0.0 | 0.9 | 0.00 | 0.15 | 0.15 | 77 | 1009.8 |
| 20260509174859 | 60 | 293 | 2.6 | 2.6 | 0.00 | 0.15 | 0.15 | 76 | 1009.6 |
| 20260509174356 | 61 | 21 | 3.5 | 4.3 | 0.00 | 0.15 | 0.15 | 75 | 1009.7 |
| 20260509173852 | 61 | 287 | 4.3 | 5.2 | 0.00 | 0.15 | 0.15 | 76 | 1009.7 |
| 20260509173346 | 61 | 314 | 2.6 | 2.6 | 0.00 | 0.15 | 0.15 | 76 | 1009.9 |
| 20260509172843 | 61 | 261 | 4.3 | 6.1 | 0.00 | 0.15 | 0.15 | 75 | 1009.6 |
| 20260509172339 | 60 | 263 | 2.6 | 5.2 | 0.00 | 0.15 | 0.15 | 77 | 1009.6 |
| 20260509171836 | 60 | 246 | 7.8 | 9.6 | 0.00 | 0.15 | 0.15 | 76 | 1009.7 |
| 20260509171331 | 60 | 305 | 4.3 | 6.1 | 0.00 | 0.15 | 0.15 | 77 | 1009.6 |
| 20260509170828 | 60 | 259 | 2.6 | 4.3 | 0.00 | 0.15 | 0.15 | 79 | 1009.7 |
| 20260509170324 | 60 | 291 | 6.1 | 6.1 | 0.00 | 0.15 | 0.15 | 78 | 1009.7 |
| 20260509165824 | 60 | 203 | 3.5 | 5.2 | 0.00 | 0.15 | 0.15 | 78 | 1009.5 |
| 20260509165318 | 60 | 324 | 2.6 | 4.3 | 0.00 | 0.15 | 0.15 | 79 | 1009.4 |
| 20260509164815 | 61 | 327 | 0.9 | 0.9 | 0.00 | 0.15 | 0.15 | 79 | 1009.4 |
| 20260509164311 | 61 | 273 | 3.5 | 5.2 | 0.00 | 0.15 | 0.15 | 78 | 1009.4 |
| 20260509163807 | 60 | 292 | 0.9 | 0.9 | 0.00 | 0.15 | 0.15 | 82 | 1009.5 |
| 20260509163305 | 59 | 280 | 1.7 | 1.7 | 0.00 | 0.15 | 0.15 | 82 | 1009.6 |
| 20260509162804 | 59 | 253 | 4.3 | 6.1 | 0.00 | 0.15 | 0.15 | 82 | 1009.8 |
| 20260509162306 | 59 | 198 | 4.3 | 7.0 | 0.00 | 0.15 | 0.15 | 85 | 1009.8 |
| 20260509161759 | 58 | 313 | 1.7 | 2.6 | 0.00 | 0.15 | 0.15 | 87 | 1009.6 |
| 20260509161255 | 57 | 259 | 2.6 | 2.6 | 0.00 | 0.15 | 0.15 | 87 | 1009.7 |
| 20260509160750 | 57 | 306 | 0.9 | 1.7 | 0.00 | 0.15 | 0.15 | 87 | 1009.7 |
| 20260509160247 | 57 | 316 | 1.7 | 2.6 | 0.00 | 0.15 | 0.15 | 87 | 1009.7 |
| 20260509155742 | 56 | 356 | 2.6 | 2.6 | 0.00 | 0.15 | 0.15 | 91 | 1009.6 |
| 20260509155239 | 55 | 272 | 2.6 | 4.3 | 0.00 | 0.15 | 0.15 | 92 | 1009.7 |
| 20260509154735 | 55 | 337 | 3.5 | 5.2 | 0.00 | 0.15 | 0.15 | 93 | 1009.9 |
| 20260509154232 | 54 | 315 | 1.7 | 1.7 | 0.00 | 0.15 | 0.15 | 93 | 1009.8 |
| 20260509153730 | 54 | 302 | 1.7 | 1.7 | 0.05 | 0.15 | 0.15 | 93 | 1009.8 |
| 20260509153225 | 54 | 297 | 2.6 | 2.6 | 0.05 | 0.15 | 0.15 | 93 | 1009.7 |
| 20260509152722 | 54 | 313 | 2.6 | 2.6 | 0.05 | 0.15 | 0.15 | 93 | 1009.5 |
| 20260509152218 | 54 | 284 | 2.6 | 2.6 | 0.00 | 0.14 | 0.14 | 93 | 1009.5 |
| 20260509151715 | 53 | 327 | 0.9 | 0.9 | 0.00 | 0.14 | 0.14 | 93 | 1009.6 |
| 20260509151212 | 54 | 313 | 2.6 | 4.3 | 0.00 | 0.14 | 0.14 | 94 | 1009.8 |
| 20260509150710 | 53 | 299 | 3.5 | 4.3 | 0.00 | 0.14 | 0.14 | 94 | 1009.9 |
| 20260509150208 | 54 | 329 | 0.9 | 1.7 | 0.00 | 0.14 | 0.14 | 94 | 1009.7 |
| 20260509145704 | 54 | 333 | 0.0 | 0.0 | 0.00 | 0.14 | 0.14 | 94 | 1009.7 |
| 20260509145159 | 53 | 302 | 0.9 | 1.7 | 0.00 | 0.14 | 0.14 | 94 | 1009.8 |
| 20260509144656 | 53 | 292 | 0.9 | 1.7 | 0.00 | 0.14 | 0.14 | 95 | 1009.7 |
| 20260509144154 | 53 | 340 | 0.9 | 1.7 | 0.00 | 0.14 | 0.14 | 95 | 1009.5 |
| 20260509143651 | 53 | 334 | 0.0 | 0.9 | 0.00 | 0.14 | 0.14 | 95 | 1009.7 |
| 20260509143148 | 53 | 325 | 1.7 | 1.7 | 0.00 | 0.14 | 0.14 | 95 | 1009.7 |
| 20260509142643 | 53 | 304 | 2.6 | 4.3 | 0.00 | 0.14 | 0.14 | 95 | 1009.7 |
| 20260509142140 | 52 | 214 | 1.7 | 2.6 | 0.00 | 0.14 | 0.14 | 95 | 1009.8 |
| 20260509141636 | 52 | 278 | 4.3 | 5.2 | 0.00 | 0.14 | 0.14 | 95 | 1009.7 |
| 20260509141132 | 52 | 304 | 1.7 | 1.7 | 0.00 | 0.14 | 0.14 | 95 | 1009.8 |
| 20260509140630 | 52 | 348 | 0.0 | 0.9 | 0.00 | 0.14 | 0.14 | 96 | 1009.8 |
| 20260509140127 | 52 | 279 | 4.3 | 5.2 | 0.00 | 0.14 | 0.14 | 96 | 1009.8 |
| 20260509135624 | 52 | 299 | 0.0 | 0.9 | 0.00 | 0.14 | 0.14 | 96 | 1009.9 |
| 20260509135123 | 52 | 343 | 0.9 | 0.9 | 0.00 | 0.14 | 0.14 | 96 | 1009.7 |
| 20260509134619 | 52 | 290 | 1.7 | 1.7 | 0.00 | 0.14 | 0.14 | 96 | 1010.0 |
| 20260509134116 | 52 | 205 | 1.7 | 2.6 | 0.07 | 0.14 | 0.14 | 96 | 1009.9 |
| 20260509133613 | 52 | 319 | 1.7 | 1.7 | 0.12 | 0.14 | 0.14 | 96 | 1009.9 |
| 20260509133111 | 52 | 229 | 1.7 | 2.6 | 0.05 | 0.13 | 0.13 | 96 | 1009.8 |
| 20260509132609 | 52 | 329 | 0.0 | 0.9 | 0.05 | 0.13 | 0.13 | 96 | 1010.0 |
| 20260509132107 | 52 | 338 | 0.9 | 0.9 | 0.00 | 0.12 | 0.12 | 96 | 1010.1 |
| 20260509131602 | 52 | 349 | 0.9 | 0.9 | 0.14 | 0.12 | 0.12 | 96 | 1010.1 |
| 20260509131100 | 52 | 332 | 0.9 | 0.9 | 0.19 | 0.12 | 0.12 | 96 | 1009.7 |
| 20260509130555 | 52 | 307 | 1.7 | 1.7 | 0.19 | 0.11 | 0.11 | 96 | 1010.0 |
| 20260509130053 | 52 | 314 | 1.7 | 1.7 | 0.12 | 0.09 | 0.09 | 95 | 1010.0 |
| 20260509125548 | 52 | 329 | 0.9 | 0.9 | 0.12 | 0.08 | 0.08 | 95 | 1010.2 |
| 20260509125045 | 52 | 316 | 1.7 | 1.7 | 0.07 | 0.07 | 0.07 | 95 | 1009.9 |
| 20260509124542 | 52 | 312 | 1.7 | 2.6 | 0.07 | 0.07 | 0.07 | 95 | 1010.1 |
| 20260509124039 | 52 | 326 | 2.6 | 6.1 | 0.00 | 0.06 | 0.06 | 95 | 1010.2 |
| 20260509123537 | 52 | 299 | 0.9 | 1.7 | 0.00 | 0.06 | 0.06 | 95 | 1010.1 |
| 20260509123033 | 52 | 297 | 1.7 | 1.7 | 0.05 | 0.06 | 0.06 | 95 | 1010.1 |
| 20260509122530 | 52 | 266 | 0.9 | 0.9 | 0.12 | 0.06 | 0.06 | 95 | 1010.2 |
| 20260509122027 | 52 | 296 | 2.6 | 4.3 | 0.07 | 0.05 | 0.05 | 95 | 1009.9 |
| 20260509121523 | 51 | 335 | 0.0 | 0.9 | 0.00 | 0.04 | 0.04 | 95 | 1010.0 |
| 20260509121021 | 51 | 322 | 0.9 | 0.9 | 0.00 | 0.04 | 0.04 | 95 | 1010.2 |
| 20260509120519 | 51 | 263 | 0.9 | 1.7 | 0.05 | 0.04 | 0.04 | 95 | 1010.2 |
| 20260509120017 | 51 | 291 | 1.7 | 1.7 | 0.05 | 0.04 | 0.04 | 94 | 1010.4 |
| 20260509115514 | 51 | 334 | 0.9 | 1.7 | 0.00 | 0.03 | 0.03 | 94 | 1010.3 |
| 20260509115012 | 51 | 254 | 1.7 | 1.7 | 0.07 | 0.03 | 0.03 | 94 | 1010.2 |
| 20260509114509 | 51 | 326 | 3.5 | 5.2 | 0.12 | 0.03 | 0.03 | 94 | 1010.1 |
| 20260509114009 | 51 | 333 | 0.0 | 0.9 | 0.05 | 0.02 | 0.02 | 94 | 1010.2 |
| 20260509113506 | 51 | 249 | 2.6 | 2.6 | 0.05 | 0.02 | 0.02 | 94 | 1010.0 |
| 20260509113004 | 51 | 260 | 1.7 | 1.7 | 0.00 | 0.01 | 0.01 | 94 | 1009.9 |
| 20260509112500 | 51 | 339 | 0.0 | 0.0 | 0.00 | 0.01 | 0.01 | 94 | 1010.0 |
| 20260509111956 | 51 | 303 | 0.9 | 1.7 | 0.00 | 0.01 | 0.01 | 94 | 1009.7 |
| 20260509111454 | 51 | 302 | 1.7 | 1.7 | 0.00 | 0.01 | 0.01 | 95 | 1009.9 |
| 20260509110951 | 51 | 332 | 0.0 | 0.0 | 0.00 | 0.01 | 0.01 | 95 | 1009.8 |
| 20260509110447 | 50 | 337 | 0.0 | 0.0 | 0.00 | 0.01 | 0.01 | 95 | 1009.9 |
| 20260509105945 | 50 | 330 | 0.0 | 0.9 | 0.00 | 0.01 | 0.01 | 96 | 1009.7 |
| 20260509105443 | 50 | 238 | 2.6 | 2.6 | 0.00 | 0.01 | 0.01 | 97 | 1009.6 |
| 20260509104940 | 50 | 311 | 0.9 | 0.9 | 0.00 | 0.01 | 0.01 | 97 | 1009.8 |
| 20260509104437 | 50 | 322 | 0.9 | 0.9 | 0.00 | 0.01 | 0.01 | 98 | 1009.7 |
| 20260509103934 | 50 | 323 | 0.9 | 0.9 | 0.00 | 0.01 | 0.01 | 98 | 1009.7 |
| 20260509103432 | 49 | 316 | 0.0 | 0.9 | 0.00 | 0.01 | 0.01 | 98 | 1009.9 |
| 20260509102930 | 49 | 292 | 1.7 | 1.7 | 0.00 | 0.01 | 0.01 | 98 | 1009.8 |
| 20260509102427 | 49 | 328 | 0.0 | 0.0 | 0.00 | 0.01 | 0.01 | 98 | 1010.0 |
| 20260509101923 | 48 | 328 | 0.0 | 0.0 | 0.00 | 0.01 | 0.01 | 98 | 1009.8 |
| 20260509101419 | 49 | 328 | 0.0 | 0.0 | 0.00 | 0.01 | 0.01 | 98 | 1010.0 |
| 20260509100917 | 49 | 328 | 0.0 | 0.0 | 0.00 | 0.01 | 0.01 | 98 | 1010.0 |
| 20260509100414 | 48 | 328 | 0.0 | 0.0 | 0.07 | 0.01 | 0.01 | 98 | 1009.7 |
| 20260509095910 | 48 | 328 | 0.0 | 0.0 | 0.07 | 0.01 | 0.01 | 98 | 1009.7 |
| 20260509095408 | 49 | 328 | 0.0 | 0.0 | 0.00 | 0.00 | 0.00 | 98 | 1010.1 |
| 20260509094905 | 49 | 328 | 0.0 | 0.0 | 0.00 | 0.00 | 0.00 | 98 | 1010.0 |
| 20260509094401 | 49 | 328 | 0.0 | 0.0 | 0.00 | 0.00 | 0.00 | 98 | 1010.1 |
| 20260509093859 | 48 | 328 | 0.0 | 0.0 | 0.00 | 0.00 | 0.00 | 98 | 1010.3 |
| 20260509093356 | 49 | 328 | 0.0 | 0.0 | 0.00 | 0.00 | 0.00 | 98 | 1010.2 |
| 20260509092854 | 48 | 328 | 0.0 | 0.0 | 0.00 | 0.00 | 0.00 | 98 | 1010.4 |
| 20260509092352 | 48 | 328 | 0.0 | 0.0 | 0.00 | 0.00 | 0.00 | 98 | 1010.3 |
| 20260509091850 | 48 | 328 | 0.0 | 0.0 | 0.00 | 0.00 | 0.00 | 98 | 1010.3 |
| 20260509091346 | 48 | 328 | 0.0 | 0.0 | 0.00 | 0.00 | 0.00 | 98 | 1010.2 |
| 20260509090844 | 48 | 328 | 0.0 | 0.0 | 0.00 | 0.00 | 0.00 | 98 | 1010.3 |
| 20260509090341 | 48 | 328 | 0.0 | 0.0 | 0.00 | 0.00 | 0.00 | 98 | 1010.5 |
| 20260509085838 | 48 | 328 | 0.0 | 0.0 | 0.00 | 0.00 | 0.00 | 98 | 1010.3 |
| 20260509085335 | 48 | 328 | 0.0 | 0.0 | 0.00 | 0.00 | 0.00 | 98 | 1010.3 |
| 20260509084832 | 48 | 328 | 0.0 | 0.0 | 0.00 | 0.00 | 0.00 | 98 | 1010.6 |
| 20260509084329 | 48 | 328 | 0.0 | 0.0 | 0.00 | 0.00 | 0.00 | 97 | 1010.5 |
| 20260509083827 | 48 | 328 | 0.0 | 0.0 | 0.00 | 0.00 | 0.00 | 97 | 1010.5 |
| 20260509083323 | 48 | 328 | 0.0 | 0.0 | 0.00 | 0.00 | 0.00 | 97 | 1010.4 |
| 20260509082820 | 48 | 328 | 0.0 | 0.0 | 0.00 | 0.00 | 0.00 | 97 | 1010.3 |
| 20260509082316 | 48 | 328 | 0.0 | 0.0 | 0.00 | 0.00 | 0.00 | 97 | 1010.2 |
| 20260509081814 | 48 | 328 | 0.0 | 0.0 | 0.00 | 0.00 | 0.00 | 97 | 1010.2 |
| 20260509081311 | 48 | 327 | 0.0 | 0.0 | 0.00 | 0.00 | 0.00 | 97 | 1010.4 |
| 20260509080809 | 48 | 327 | 0.9 | 0.9 | 0.00 | 0.00 | 0.00 | 97 | 1010.3 |
| 20260509080306 | 48 | 3 | 0.0 | 0.0 | 0.00 | 0.00 | 0.00 | 97 | 1010.2 |
| 20260509075804 | 48 | 4 | 0.0 | 0.0 | 0.00 | 0.00 | 0.00 | 97 | 1010.3 |
| 20260509075301 | 48 | 4 | 0.0 | 0.0 | 0.00 | 0.00 | 0.00 | 97 | 1010.2 |
| 20260509074758 | 48 | 4 | 0.0 | 0.0 | 0.00 | 0.00 | 0.00 | 97 | 1010.4 |
| 20260509074256 | 48 | 2 | 0.9 | 0.9 | 0.00 | 0.00 | 0.00 | 97 | 1010.6 |
| 20260509073752 | 48 | 14 | 0.0 | 0.0 | 0.00 | 0.00 | 0.00 | 97 | 1010.0 |
| 20260509073248 | 48 | 6 | 0.9 | 1.7 | 0.00 | 0.00 | 0.00 | 97 | 1010.5 |
| 20260509072745 | 48 | 0 | 0.0 | 0.0 | 0.00 | 0.00 | 0.00 | 97 | 1010.5 |
| 20260509072242 | 48 | 6 | 0.0 | 0.0 | 0.00 | 0.00 | 0.00 | 97 | 1010.2 |
| 20260509071738 | 48 | 353 | 0.9 | 0.9 | 0.00 | 0.00 | 0.00 | 97 | 1010.2 |
| 20260509071236 | 48 | 353 | 0.0 | 0.0 | 0.00 | 0.00 | 0.00 | 96 | 1010.2 |
| 20260509070733 | 48 | 353 | 0.0 | 0.0 | 0.00 | 0.00 | 0.00 | 96 | 1010.2 |
| 20260509070229 | 48 | 353 | 0.0 | 0.0 | 0.00 | 0.00 | 0.00 | 96 | 1010.2 |
| 20260509065726 | 48 | 353 | 0.0 | 0.0 | 0.00 | 0.00 | 0.00 | 96 | 1010.4 |
| 20260509065222 | 48 | 353 | 0.0 | 0.0 | 0.00 | 0.00 | 0.00 | 96 | 1010.3 |
| 20260509064718 | 48 | 353 | 0.0 | 0.0 | 0.00 | 0.00 | 0.00 | 96 | 1010.4 |
| 20260509064216 | 49 | 353 | 0.0 | 0.0 | 0.00 | 0.00 | 0.00 | 96 | 1010.4 |
| 20260509063713 | 49 | 353 | 0.0 | 0.0 | 0.00 | 0.00 | 0.00 | 96 | 1010.6 |
| 20260509063209 | 48 | 353 | 0.0 | 0.0 | 0.00 | 0.00 | 0.00 | 96 | 1010.7 |
| 20260509062707 | 49 | 353 | 0.0 | 0.0 | 0.00 | 0.00 | 0.00 | 96 | 1010.6 |
| 20260509062204 | 49 | 353 | 0.0 | 0.0 | 0.00 | 0.00 | 0.00 | 96 | 1010.7 |
| 20260509061701 | 48 | 353 | 0.0 | 0.0 | 0.00 | 0.00 | 0.00 | 95 | 1010.9 |
| 20260509061158 | 49 | 353 | 0.0 | 0.0 | 0.00 | 0.00 | 0.00 | 95 | 1011.1 |
| 20260509060655 | 49 | 353 | 0.0 | 0.0 | 0.00 | 0.00 | 0.00 | 95 | 1011.0 |
| 20260509060152 | 48 | 353 | 0.0 | 0.0 | 0.00 | 0.00 | 0.00 | 95 | 1011.0 |
| 20260509055647 | 49 | 353 | 0.0 | 0.0 | 0.00 | 0.00 | 0.00 | 95 | 1011.0 |
| 20260509055143 | 49 | 353 | 0.0 | 0.0 | 0.00 | 0.00 | 0.00 | 95 | 1011.0 |
| 20260509054640 | 49 | 353 | 0.0 | 0.0 | 0.00 | 0.00 | 0.00 | 95 | 1011.0 |
| 20260509054138 | 49 | 353 | 0.0 | 0.0 | 0.00 | 0.00 | 0.00 | 95 | 1011.3 |
| 20260509053636 | 49 | 353 | 0.0 | 0.0 | 0.00 | 0.00 | 0.00 | 95 | 1011.2 |
| 20260509053132 | 49 | 353 | 0.0 | 0.0 | 0.00 | 0.00 | 0.00 | 95 | 1011.5 |
| 20260509052631 | 49 | 353 | 0.0 | 0.0 | 0.00 | 0.00 | 0.00 | 95 | 1011.4 |
| 20260509052128 | 49 | 354 | 0.0 | 0.0 | 0.00 | 0.00 | 0.00 | 95 | 1011.2 |
| 20260509051626 | 49 | 353 | 0.0 | 0.0 | 0.00 | 0.00 | 0.00 | 95 | 1011.5 |
| 20260509051123 | 49 | 353 | 0.0 | 0.0 | 0.00 | 0.00 | 0.00 | 95 | 1011.5 |
| 20260509050620 | 49 | 5 | 0.0 | 0.0 | 0.00 | 0.00 | 0.00 | 95 | 1011.4 |
| 20260509050116 | 49 | 14 | 0.9 | 1.7 | 0.00 | 0.00 | 0.00 | 95 | 1011.3 |
| 20260509045614 | 49 | 5 | 0.0 | 0.0 | 0.00 | 0.00 | 0.00 | 96 | 1011.6 |
| 20260509045110 | 49 | 4 | 0.0 | 0.0 | 0.00 | 0.00 | 0.00 | 96 | 1011.7 |
| 20260509044608 | 49 | 4 | 0.0 | 0.9 | 0.00 | 0.00 | 0.00 | 96 | 1011.7 |
| 20260509044105 | 49 | 6 | 0.9 | 0.9 | 0.00 | 0.00 | 0.00 | 96 | 1011.7 |
| 20260509043601 | 49 | 21 | 0.0 | 0.0 | 0.00 | 0.00 | 0.00 | 96 | 1011.8 |
| 20260509043057 | 49 | 17 | 0.0 | 0.0 | 0.00 | 0.00 | 0.00 | 96 | 1011.7 |
| 20260509042553 | 49 | 17 | 0.0 | 0.0 | 0.00 | 0.00 | 0.00 | 96 | 1012.0 |
| 20260509042049 | 49 | 17 | 0.0 | 0.0 | 0.00 | 0.00 | 0.00 | 96 | 1011.9 |
| 20260509041546 | 49 | 17 | 0.0 | 0.0 | 0.00 | 0.00 | 0.00 | 96 | 1011.9 |
| 20260509041044 | 49 | 17 | 0.0 | 0.9 | 0.00 | 0.00 | 0.00 | 96 | 1012.2 |
| 20260509040542 | 49 | 17 | 0.0 | 0.0 | 0.00 | 0.00 | 0.00 | 96 | 1012.2 |
| 20260509040039 | 49 | 17 | 0.0 | 0.0 | 0.00 | 0.06 | 0.06 | 96 | 1012.4 |
| 20260509035536 | 49 | 17 | 0.0 | 0.0 | 0.00 | 0.06 | 0.06 | 96 | 1012.3 |
| 20260509035032 | 49 | 17 | 0.0 | 0.0 | 0.00 | 0.06 | 0.06 | 96 | 1012.5 |
| 20260509034531 | 50 | 15 | 0.0 | 0.0 | 0.05 | 0.06 | 0.06 | 96 | 1012.6 |
| 20260509034027 | 50 | 16 | 0.0 | 0.0 | 0.05 | 0.06 | 0.06 | 96 | 1012.6 |
| 20260509033524 | 50 | 336 | 0.0 | 0.0 | 0.00 | 0.05 | 0.05 | 96 | 1012.9 |
| 20260509033021 | 50 | 335 | 0.0 | 0.0 | 0.00 | 0.05 | 0.05 | 96 | 1013.0 |
| 20260509032518 | 50 | 335 | 0.0 | 0.0 | 0.00 | 0.05 | 0.05 | 96 | 1012.8 |
| 20260509032015 | 50 | 334 | 0.0 | 0.0 | 0.00 | 0.05 | 0.05 | 96 | 1013.0 |
| 20260509031513 | 50 | 334 | 0.0 | 0.0 | 0.00 | 0.05 | 0.05 | 95 | 1013.1 |
| 20260509031010 | 50 | 336 | 0.0 | 0.0 | 0.00 | 0.05 | 0.05 | 95 | 1013.2 |
| 20260509030508 | 50 | 336 | 0.0 | 0.0 | 0.00 | 0.05 | 0.05 | 95 | 1013.1 |
| 20260509030004 | 50 | 337 | 0.0 | 0.0 | 0.07 | 0.05 | 0.05 | 95 | 1013.4 |
| 20260509025500 | 50 | 337 | 0.0 | 0.0 | 0.07 | 0.05 | 0.05 | 95 | 1013.4 |
| 20260509024956 | 50 | 337 | 0.0 | 0.9 | 0.00 | 0.04 | 0.04 | 95 | 1013.3 |
| 20260509024452 | 50 | 337 | 0.0 | 0.0 | 0.00 | 0.04 | 0.04 | 95 | 1013.3 |
| 20260509023949 | 50 | 336 | 0.0 | 0.9 | 0.07 | 0.04 | 0.04 | 94 | 1013.4 |
| 20260509023446 | 50 | 326 | 0.9 | 0.9 | 0.07 | 0.04 | 0.04 | 94 | 1013.4 |
| 20260509022943 | 50 | 355 | 0.9 | 0.9 | 0.00 | 0.03 | 0.03 | 94 | 1013.3 |
| 20260509022440 | 50 | 347 | 1.7 | 1.7 | 0.00 | 0.03 | 0.03 | 93 | 1013.3 |
| 20260509021938 | 50 | 335 | 0.9 | 1.7 | 0.00 | 0.03 | 0.03 | 93 | 1013.2 |
| 20260509021429 | 51 | 335 | 0.0 | 0.0 | 0.00 | 0.03 | 0.03 | 92 | 1013.2 |
| 20260509020926 | 51 | 335 | 0.0 | 0.0 | 0.05 | 0.03 | 0.03 | 92 | 1013.1 |
| 20260509020424 | 50 | 335 | 0.9 | 0.9 | 0.05 | 0.03 | 0.03 | 91 | 1013.0 |
| 20260509015921 | 50 | 323 | 0.0 | 0.0 | 0.05 | 0.03 | 0.03 | 91 | 1012.6 |
| 20260509015420 | 51 | 323 | 0.0 | 0.9 | 0.00 | 0.02 | 0.02 | 91 | 1012.6 |
| 20260509014916 | 51 | 8 | 0.0 | 0.0 | 0.00 | 0.02 | 0.02 | 91 | 1012.3 |
| 20260509014413 | 51 | 8 | 0.0 | 0.0 | 0.00 | 0.02 | 0.02 | 91 | 1012.5 |
| 20260509013910 | 51 | 8 | 0.0 | 0.0 | 0.00 | 0.02 | 0.02 | 90 | 1012.5 |
| 20260509013406 | 51 | 3 | 0.0 | 0.0 | 0.00 | 0.02 | 0.02 | 90 | 1012.9 |
| 20260509012902 | 51 | 1 | 1.7 | 1.7 | 0.00 | 0.02 | 0.02 | 90 | 1012.8 |
| 20260509012358 | 51 | 9 | 0.9 | 0.9 | 0.00 | 0.02 | 0.02 | 90 | 1012.5 |
| 20260509011856 | 51 | 9 | 0.0 | 0.0 | 0.00 | 0.02 | 0.02 | 90 | 1012.2 |
| 20260509011353 | 51 | 10 | 0.0 | 0.0 | 0.00 | 0.02 | 0.02 | 90 | 1012.1 |
| 20260509010852 | 51 | 336 | 0.9 | 0.9 | 0.00 | 0.02 | 0.02 | 90 | 1012.2 |
| 20260509010348 | 51 | 343 | 0.0 | 0.0 | 0.00 | 0.02 | 0.02 | 90 | 1011.9 |
| 20260509005845 | 51 | 23 | 0.9 | 1.7 | 0.00 | 0.02 | 0.02 | 90 | 1012.1 |
| 20260509005343 | 51 | 4 | 0.9 | 0.9 | 0.00 | 0.02 | 0.02 | 91 | 1011.9 |
| 20260509004843 | 51 | 9 | 0.0 | 0.9 | 0.00 | 0.02 | 0.02 | 91 | 1011.6 |
| 20260509004339 | 51 | 353 | 0.9 | 0.9 | 0.00 | 0.02 | 0.02 | 90 | 1012.2 |
| 20260509003837 | 51 | 334 | 0.0 | 0.0 | 0.00 | 0.02 | 0.02 | 90 | 1011.7 |
| 20260509003335 | 51 | 336 | 0.0 | 0.0 | 0.00 | 0.02 | 0.02 | 90 | 1011.9 |
| 20260509002832 | 51 | 336 | 0.9 | 0.9 | 0.00 | 0.02 | 0.02 | 89 | 1012.0 |
| 20260509002329 | 51 | 336 | 0.0 | 0.0 | 0.00 | 0.02 | 0.02 | 89 | 1012.0 |
| 20260509001827 | 51 | 6 | 0.0 | 0.0 | 0.00 | 0.02 | 0.02 | 88 | 1011.8 |
| 20260509001323 | 51 | 5 | 0.9 | 1.7 | 0.00 | 0.02 | 0.02 | 88 | 1011.7 |
| 20260509000821 | 52 | 345 | 0.0 | 0.0 | 0.00 | 0.02 | 0.02 | 88 | 1011.6 |
| 20260509000318 | 52 | 4 | 0.0 | 0.9 | 0.00 | 0.02 | 0.02 | 87 | 1011.6 |
| 20260508235814 | 52 | 357 | 0.9 | 0.9 | 0.00 | 0.02 | 0.02 | 87 | 1011.7 |
| 20260508235311 | 52 | 351 | 0.0 | 0.9 | 0.00 | 0.02 | 0.02 | 86 | 1011.8 |
| 20260508234808 | 52 | 349 | 0.0 | 0.0 | 0.00 | 0.02 | 0.02 | 86 | 1011.7 |
| 20260508234259 | 52 | 329 | 0.9 | 0.9 | 0.00 | 0.02 | 0.02 | 85 | 1011.8 |
| 20260508233758 | 52 | 340 | 0.9 | 0.9 | 0.00 | 0.02 | 0.02 | 84 | 1011.6 |
| 20260508233257 | 52 | 307 | 0.9 | 0.9 | 0.00 | 0.02 | 0.02 | 84 | 1011.8 |
| 20260508232754 | 52 | 339 | 0.9 | 0.9 | 0.00 | 0.02 | 0.02 | 85 | 1011.8 |
| 20260508232250 | 52 | 344 | 0.0 | 0.0 | 0.00 | 0.02 | 0.02 | 84 | 1012.0 |
| 20260508231748 | 53 | 0 | 0.0 | 0.0 | 0.00 | 0.02 | 0.02 | 84 | 1011.8 |
| 20260508231244 | 53 | 9 | 0.0 | 0.0 | 0.00 | 0.02 | 0.02 | 84 | 1011.9 |
| 20260508230741 | 53 | 16 | 0.9 | 0.9 | 0.00 | 0.02 | 0.02 | 84 | 1011.7 |
| 20260508230237 | 53 | 359 | 0.0 | 0.9 | 0.00 | 0.02 | 0.02 | 83 | 1011.9 |
| 20260508225735 | 53 | 7 | 0.9 | 0.9 | 0.00 | 0.02 | 0.02 | 83 | 1011.8 |
| 20260508225232 | 53 | 24 | 0.0 | 0.9 | 0.00 | 0.02 | 0.02 | 83 | 1012.1 |
| 20260508224729 | 54 | 12 | 0.9 | 0.9 | 0.00 | 0.02 | 0.02 | 82 | 1011.8 |